Flight APN100X

  • Submitted By: Krzysztof H. Blaszkow
  • Departure Airport: Warszawa Chopina (EPWA)
  • Arrival Airport: Gdansk im. Lecha Walesy (EPGD)
  • Aircraft: ATR 72-500 (SP-RYD)
  • Flight Time: 01.16.37
  • Date Submitted: 02/16/2017
  • Route: TU O FLAPS/SPEED MOZNA SIE PRZYCZEPIC, 305 TO ZGONIE NA KLATKI
  • Status: Accepted
Flight Details
Gross Revenue:
(69 load / € 55.00 per unit
€ 3,795.00
Fuel Cost:
(587.856 fuel used @ 0.45 / unit)
€ 264.54

Additional Log Information:

View Log

[21:29] - Flight 1 ATR 72-500 House Livery
[21:29] - Flight APN100X is ready to depart EPWA with a final destination of EPGD.
[21:29] - Parking Brake Applied
[21:29] - Beacon Light ON
[21:29] - Boarding
[21:29] - ADF1 - 305.0
[21:29] - ADF2 - 371.0
[21:29] - NAV1 - 110.30
[21:29] - NAV2 - 110.30
[21:29] - COM1 - 122.80
[21:29] - COM2 - 125.27
[21:29] - Transponder - 4532
[21:34] - NAV1 - 113.40
[21:35] - Logo Lights ON 3AGL
[21:35] - Navigation Lights ON 3AGL
[21:35] - Wing Lights ON 3AGL
[21:36] - Taxi Lights ON 3AGL
[21:39] - Parking Brake Released
[21:40] - Engine 1 Started
[21:40] - Engine 2 Started
[21:42] - Taxiing to Runway
[21:46] - Landing Lights ON 3AGL
[21:46] - Taxi Lights OFF 3AGL
[21:46] - Strobe Lights ON 3AGL
[21:48] - Taking Off with 69 passengers on board
[21:49] - Take off at 139kts, with a pitch of 5deg and 3851lbs of fuel on board
[21:49] - Wind Heading 262 | Wind Speed 4kts | Temperature 1 deg C
[21:49] - METAR Departure: EPWA 162130Z 26003KT 230V290 6000 NSC 01/M02 Q1024 NOSIG

[21:49] - Climbing to TOC
[21:50] - Gear up at 2599AGL
[21:54] - Landing Lights OFF 10462AGL
[21:55] - AutoPilot Engaged at 10892AGL
[22:05] - TOC reached
[22:05] - Cruise started
[22:12] - NAV1 - 116.10
[22:23] - TOD reached
[22:23] - Descending to destination
[22:25] - Landing Lights ON 10653AGL
[22:30] - NAV1 - 110.30
[22:32] - Landing Shortly
[22:34] - AutoPilot Disengaged at 1994AGL
[22:35] - Flaps to position 1 at 1171ft and 200kts
[22:35] - Gear down at 784AGL
[22:36] - Landed at -305fpm. With 2663lbs of fuel onboard and a pitch angle of -1deg.
[22:36] - Wind Heading 231 | Wind Speed 7kts | Temperature 1 deg C
[22:36] - METAR Arrival: EPGD 162200Z 23007KT 8000 BKN018 05/01 Q1020

[22:36] - Flaps to position 0
[22:36] - Taxiing to Gate
[22:37] - Landing Lights OFF 6AGL
[22:37] - Taxi Lights ON 6AGL
[22:37] - Strobe Lights OFF 6AGL
[22:42] - Parking Brake Applied
[22:42] - Arrived safely at EPGD. We hope you enjoyed your flight!
[22:42] - Engine 2 Stopped
[22:42] - Engine 1 Stopped
[22:42] - Taxi Lights OFF 6AGL
[22:42] - Navigation Lights OFF 6AGL
[22:42] - Logo Lights OFF 6AGL
[22:42] - Wing Lights OFF 6AGL
[22:46] - Flight 1 ATR 72-500 House Livery
[22:46] - MaxSim Rate: 1x
[22:46] - SiouxAcars ver: 1.0.1.2

Comments

Commenter Comment
Krzysztof H. Blaszkow wrong comment field, sorry

Route Map